ADDS METAR Data INFO
IDs: Format: Raw Decoded Include TAF

Data at: 0928 UTC 25 Jun 2018

KADF 250856Z AUTO 00000KT 10SM CLR 19/19 A2994 RMK AO2 SLP138 T01940189 53002 TSNO
KADF 250756Z AUTO 00000KT 10SM CLR 20/19 A2991 RMK AO2 SLP129 T02000194 TSNO
KADF 250656Z AUTO 00000KT 10SM CLR 20/19 A2992 RMK AO2 SLP131 T02000194 TSNO
KADF 250556Z AUTO 04004KT 10SM CLR 21/21 A2993 RMK AO2 SLP136 60020 T02060206 10317 20206 403390206 53024 TSNO
KADF 250456Z AUTO 00000KT 10SM CLR 22/19 A2992 RMK AO2 RAE0357 SLP131 T02170194 TSNO
KADF 250356Z AUTO 36009G15KT 10SM -RA FEW021 22/20 A2985 RMK AO2 RAB01 SLP107 P0002 T02170200 TSNO
KADF 250256Z AUTO 17009G19KT 8SM FEW065 SCT100 22/20 A2986 RMK AO2 SLP112 60018 T02170200 58024 TSNO
KADF 250156Z AUTO 18005KT 10SM FEW095 SCT110 22/21 A2994 RMK AO2 RAE05 SLP140 P0000 T02220206 TSNO
KADF 250056Z AUTO 36006KT 10SM -RA FEW030 BKN090 OVC110 23/20 A2993 RMK AO2 PK WND 32032/0020 RAB23 SLP135 P0018 T02280200 TSNO
KADF 250051Z AUTO 02005KT 10SM -RA FEW030 BKN070 OVC110 23/20 A2993 RMK AO2 PK WND 32032/0020 RAB23 P0018 TSNO
KADF 250032Z AUTO 32009G25KT 2 1/2SM +RA FEW020 SCT039 BKN060 25/19 A3000 RMK AO2 PK WND 32032/0020 VIS 1 1/4V5 RAB23 PRESRR P0007 TSNO
KADF 242356Z AUTO 27005KT 10SM FEW060 32/24 A2994 RMK AO2 SLP137 T03220244 10339 20317 53007 TSNO
KADF 242256Z AUTO 20004KT 10SM CLR 33/23 A2991 RMK AO2 SLP129 T03330233 TSNO
KADF 242156Z AUTO 16005KT 10SM CLR 33/23 A2991 RMK AO2 SLP128 T03330233 TSNO
KADF 242056Z AUTO 18007KT 10SM FEW055 33/23 A2992 RMK AO2 SLP130 T03280233 53003 TSNO
KADF 241956Z AUTO 18010KT 10SM CLR 33/23 A2991 RMK AO2 SLP128 T03330233 TSNO
KADF 241856Z AUTO 20011G16KT 10SM SCT035 33/24 A2991 RMK AO2 SLP129 T03330239 TSNO
KADF 241756Z AUTO 20009KT 10SM CLR 32/24 A2991 RMK AO2 SLP128 60000 T03220239 10322 20244 56036 TSNO
KADF 241656Z AUTO 17011KT 10SM FEW018 29/24 A2991 RMK AO2 SLP129 T02890244 TSNO
KADF 241556Z AUTO 17006KT 10SM CLR 27/23 A2996 RMK AO2 RAE00 PRESFR SLP147 P0000 T02720233 TSNO
KADF 241456Z AUTO 28003KT 10SM -RA FEW027 BKN075 OVC090 26/24 A3001 RMK AO2 RAB14 SLP164 P0000 60000 T02610244 51034 TSNO
KADF 241450Z AUTO VRB03KT 10SM -RA FEW029 BKN045 OVC090 26/24 A3001 RMK AO2 RAB14 P0000 TSNO
KADF 241356Z AUTO 29004KT 10SM OVC017 26/24 A2999 RMK AO2 PRESRR SLP157 T02610239 TSNO
KADF 241337Z AUTO 17005KT 10SM BKN017 OVC022 26/24 A2994 RMK AO2 TSNO
KADF 241317Z AUTO 17004KT 10SM BKN013 BKN021 26/24 A2992 RMK AO2 TSNO
KADF 241256Z AUTO 17004KT 10SM FEW011 SCT028 26/24 A2991 RMK AO2 SLP129 T02560239 TSNO
KADF 241231Z AUTO 18004KT 10SM FEW013 BKN028 25/24 A2990 RMK AO2 TSNO
KADF 241156Z AUTO 18003KT 10SM FEW021 24/24 A2989 RMK AO2 SLP120 70001 T02440239 10256 20233 53008 TSNO
KADF 241056Z AUTO 17005KT 10SM CLR 24/23 A2987 RMK AO2 SLP116 T02440233 TSNO
KADF 240956Z AUTO 19007KT 10SM BKN070 26/24 A2986 RMK AO2 SLP111 T02560239 TSNO
KADF 240856Z AUTO 19005KT 10SM SCT065 26/23 A2986 RMK AO2 SLP112 T02560233 51004 TSNO
KADF 240756Z AUTO 00000KT 8SM CLR 24/24 A2986 RMK AO2 SLP111 T02440239 TSNO
KADF 240656Z AUTO 00000KT 6SM BR FEW050 24/23 A2987 RMK AO2 SLP115 T02390233 TSNO
KADF 240648Z AUTO 00000KT 2SM BR FEW003 23/23 A2987 RMK AO2 VIS 1/2V5 TSNO
KADF 240640Z AUTO 00000KT 1SM BR VV003 23/23 A2986 RMK AO2 VIS 1/4V4 TSNO
KADF 240638Z AUTO 00000KT 1 1/4SM BR CLR 23/23 A2986 RMK AO2 VIS 1/4V5 TSNO
KADF 240610Z AUTO 00000KT 8SM FEW055 24/23 A2986 RMK AO2 TSNO
KADF 240556Z AUTO 00000KT 2 1/2SM BR CLR 23/23 A2985 RMK AO2 VIS 3/4V5 SLP109 T02330233 10333 20233 403560211 53011 TSNO
KADF 240550Z AUTO 00000KT 1 3/4SM BR CLR 23/23 A2985 RMK AO2 VIS 3/4V5 403560211 TSNO
KADF 240456Z AUTO 00000KT 6SM BR CLR 25/24 A2984 RMK AO2 SLP106 T02500244 TSNO
KADF 240356Z AUTO 00000KT 5SM BR CLR 26/26 A2983 RMK AO2 SLP100 T02610256 TSNO
KADF 240256Z AUTO 00000KT 10SM SCT043 BKN060 27/26 A2982 RMK AO2 SLP098 T02720261 53011 TSNO
KADF 240156Z AUTO 00000KT 10SM CLR 28/26 A2980 RMK AO2 SLP092 T02830261 TSNO
KADF 240056Z AUTO 18003KT 10SM BKN043 BKN055 32/26 A2979 RMK AO2 SLP088 T03170261 TSNO
KADF 232356Z AUTO 21006KT 10SM FEW047 33/25 A2979 RMK AO2 SLP087 T03330250 10356 20283 55004 TSNO
KADF 232256Z AUTO 22009KT 10SM CLR 35/24 A2978 RMK AO2 SLP085 T03500244 TSNO
KADF 232156Z AUTO 21011KT 10SM CLR 36/24 A2978 RMK AO2 SLP085 T03560239 TSNO